Time;durP1;ratioP1;P1;durP2;ratioP2;P2;SDS_P1;SDS_P2;PMS_P1;PMS_P2;Temp;Humidity;BMP_temperature;BMP_pressure;BME280_temperature;BME280_humidity;BME280_pressure;Samples;Min_cycle;Max_cycle;Signal;HPM_P1;HPM_P2
2021/04/25 00:01:41;;;;;;;9.52;5.13;;;10.20;69.60;;;;;;5034183;28;20364;-75
2021/04/25 00:04:10;;;;;;;7.10;5.25;;;10.20;69.60;;;;;;5068389;28;20033;-75
2021/04/25 00:06:36;;;;;;;7.95;4.25;;;10.30;69.60;;;;;;5071914;28;20131;-75
2021/04/25 00:09:03;;;;;;;8.45;5.05;;;10.30;69.30;;;;;;5072674;28;20029;-73
2021/04/25 00:11:29;;;;;;;6.70;4.32;;;10.30;69.20;;;;;;5071799;28;20111;-76
2021/04/25 00:13:54;;;;;;;6.72;4.25;;;10.30;69.40;;;;;;5054403;28;20128;-75
2021/04/25 00:16:22;;;;;;;7.57;3.78;;;10.30;69.60;;;;;;5071827;28;20059;-76
2021/04/25 00:18:48;;;;;;;8.20;4.60;;;10.20;69.80;;;;;;5053618;28;20116;-74
2021/04/25 00:21:13;;;;;;;8.32;4.22;;;10.20;69.70;;;;;;5055823;28;20119;-78
2021/04/25 00:23:39;;;;;;;9.55;4.28;;;10.10;69.90;;;;;;5073952;28;20462;-75
2021/04/25 00:26:05;;;;;;;9.30;4.78;;;10.20;69.90;;;;;;5055366;28;20024;-75
2021/04/25 00:28:30;;;;;;;9.20;4.85;;;10.10;69.90;;;;;;5072737;28;20161;-73
2021/04/25 00:30:56;;;;;;;10.45;5.10;;;10.00;70.10;;;;;;5073326;28;20037;-74
2021/04/25 00:33:22;;;;;;;9.85;5.28;;;10.10;70.40;;;;;;5073007;28;20028;-75
2021/04/25 00:35:47;;;;;;;11.18;4.40;;;10.00;70.40;;;;;;5054137;28;20040;-74
2021/04/25 00:38:13;;;;;;;10.50;4.78;;;10.10;70.00;;;;;;5055114;28;20021;-76
2021/04/25 00:40:39;;;;;;;15.45;4.75;;;10.10;70.10;;;;;;5072162;28;20059;-76
2021/04/25 00:43:05;;;;;;;10.70;4.72;;;10.10;70.30;;;;;;5055101;28;20044;-75
2021/04/25 00:45:30;;;;;;;11.15;4.80;;;10.10;70.00;;;;;;5072668;28;20033;-75
2021/04/25 00:47:56;;;;;;;11.90;5.82;;;10.10;70.10;;;;;;5055201;28;20411;-75
2021/04/25 00:50:24;;;;;;;9.23;4.95;;;10.10;69.80;;;;;;5073125;28;20090;-75
2021/04/25 00:52:54;;;;;;;8.48;3.85;;;10.20;69.70;;;;;;5054225;28;20032;-75
2021/04/25 00:55:22;;;;;;;10.98;4.32;;;10.10;69.80;;;;;;5054047;28;20339;-75
2021/04/25 00:57:48;;;;;;;12.23;4.53;;;10.00;70.10;;;;;;5072185;28;20285;-75
2021/04/25 01:00:15;;;;;;;10.80;5.05;;;9.90;70.40;;;;;;5072671;28;20078;-76
2021/04/25 01:02:40;;;;;;;11.52;5.78;;;9.90;70.70;;;;;;5071954;28;20032;-75
2021/04/25 01:05:10;;;;;;;8.20;4.55;;;9.90;70.60;;;;;;5054997;28;20031;-76
2021/04/25 01:07:35;;;;;;;5.65;4.18;;;10.00;70.40;;;;;;5072302;28;20347;-75
2021/04/25 01:10:02;;;;;;;9.00;4.20;;;9.90;70.40;;;;;;5054876;28;20028;-76
2021/04/25 01:12:28;;;;;;;6.75;4.25;;;9.90;70.40;;;;;;5054843;28;20091;-75
2021/04/25 01:14:54;;;;;;;8.43;4.45;;;9.60;71.00;;;;;;5053600;28;20454;-75
2021/04/25 01:17:20;;;;;;;7.95;4.53;;;9.70;71.10;;;;;;5072652;28;20033;-76
2021/04/25 01:19:45;;;;;;;9.93;5.18;;;9.70;71.10;;;;;;5072007;28;20114;-75
2021/04/25 01:22:11;;;;;;;10.15;4.88;;;9.60;71.40;;;;;;5072496;28;20036;-75
2021/04/25 01:24:37;;;;;;;9.63;4.05;;;9.50;71.70;;;;;;5053743;28;20021;-74
2021/04/25 01:27:03;;;;;;;7.95;4.13;;;9.60;71.80;;;;;;5054135;28;20031;-75
2021/04/25 01:29:29;;;;;;;8.18;4.80;;;9.60;71.60;;;;;;5054204;28;20048;-75
2021/04/25 01:31:54;;;;;;;11.18;4.68;;;9.50;72.00;;;;;;5053656;28;20347;-76
2021/04/25 01:34:20;;;;;;;9.40;5.68;;;9.50;71.90;;;;;;5054307;28;20028;-76
2021/04/25 01:36:46;;;;;;;10.18;4.78;;;9.50;71.70;;;;;;5071475;28;20094;-76
2021/04/25 01:39:12;;;;;;;14.65;4.07;;;9.50;72.00;;;;;;5072469;28;20029;-76
2021/04/25 01:41:38;;;;;;;10.55;4.57;;;9.40;71.80;;;;;;5053101;28;20127;-75
2021/04/25 01:44:04;;;;;;;10.25;4.72;;;9.30;72.20;;;;;;5072053;28;20036;-76
2021/04/25 01:46:29;;;;;;;10.52;4.55;;;9.20;72.60;;;;;;5071928;28;20520;-77
2021/04/25 01:48:55;;;;;;;13.80;4.25;;;9.00;72.90;;;;;;5071287;28;20086;-76
2021/04/25 01:51:21;;;;;;;9.52;4.22;;;9.00;73.00;;;;;;5053610;28;20081;-76
2021/04/25 01:53:47;;;;;;;6.68;4.03;;;9.10;73.20;;;;;;5071119;28;20103;-76
2021/04/25 01:56:12;;;;;;;11.13;5.97;;;9.00;73.00;;;;;;5053856;28;20529;-76
2021/04/25 01:58:38;;;;;;;8.77;4.40;;;9.10;72.90;;;;;;5071189;28;20074;-75
2021/04/25 02:01:04;;;;;;;12.40;4.60;;;9.10;72.80;;;;;;5071365;28;20043;-75
2021/04/25 02:03:30;;;;;;;13.00;4.43;;;9.10;72.50;;;;;;5053528;28;20105;-76
2021/04/25 02:05:56;;;;;;;7.45;5.10;;;9.00;72.40;;;;;;5052365;28;20494;-76
2021/04/25 02:08:22;;;;;;;9.65;4.43;;;9.00;73.00;;;;;;5070869;28;20040;-76
2021/04/25 02:10:49;;;;;;;8.07;4.07;;;9.00;72.60;;;;;;5071065;28;20172;-76
2021/04/25 02:13:16;;;;;;;15.43;5.55;;;8.80;73.00;;;;;;5052995;28;20028;-77
2021/04/25 02:15:42;;;;;;;8.38;4.35;;;8.80;73.20;;;;;;5071037;28;20488;-76
2021/04/25 02:18:07;;;;;;;6.68;4.10;;;8.70;73.50;;;;;;5071233;28;20024;-76
2021/04/25 02:20:34;;;;;;;7.22;3.70;;;8.60;73.70;;;;;;5052629;28;20032;-74
2021/04/25 02:23:00;;;;;;;13.45;3.95;;;8.60;73.70;;;;;;5071121;28;20055;-76
2021/04/25 02:25:25;;;;;;;9.45;4.43;;;8.70;73.20;;;;;;5052855;28;20075;-77
2021/04/25 02:27:52;;;;;;;7.78;4.15;;;8.60;72.90;;;;;;5070837;28;20040;-76
2021/04/25 02:30:24;;;;;;;14.48;3.58;;;8.50;73.10;;;;;;5052976;28;20058;-77
2021/04/25 02:32:50;;;;;;;14.07;3.85;;;8.50;73.30;;;;;;5070429;28;20090;-76
2021/04/25 02:35:17;;;;;;;6.15;3.75;;;8.40;73.00;;;;;;5052944;28;20126;-77
2021/04/25 02:37:44;;;;;;;9.60;3.50;;;8.30;73.50;;;;;;5070348;28;20047;-75
2021/04/25 02:40:12;;;;;;;10.77;4.43;;;8.20;73.50;;;;;;5070745;28;20055;-76
2021/04/25 02:42:39;;;;;;;7.85;3.63;;;8.20;73.40;;;;;;5070050;28;20060;-76
2021/04/25 02:45:06;;;;;;;6.93;3.40;;;8.10;73.80;;;;;;5052863;28;20036;-76
2021/04/25 02:47:32;;;;;;;5.80;2.60;;;8.20;73.80;;;;;;5052761;28;20031;-77
2021/04/25 02:49:58;;;;;;;7.65;3.63;;;8.20;73.40;;;;;;5070286;28;20047;-76
2021/04/25 02:52:27;;;;;;;8.52;3.60;;;8.20;73.40;;;;;;5070929;28;20055;-76
2021/04/25 02:54:54;;;;;;;8.75;3.20;;;8.20;73.40;;;;;;5070190;28;20020;-76
2021/04/25 02:57:19;;;;;;;8.00;3.25;;;8.20;73.20;;;;;;5070779;28;20028;-76
2021/04/25 02:59:45;;;;;;;8.57;3.35;;;8.30;72.70;;;;;;5051904;28;20024;-76
2021/04/25 03:02:11;;;;;;;5.72;2.92;;;8.10;72.90;;;;;;5052458;28;20036;-76
2021/04/25 03:04:37;;;;;;;7.18;2.80;;;8.20;72.60;;;;;;5069757;28;20107;-78
2021/04/25 03:07:02;;;;;;;6.53;3.33;;;8.10;72.60;;;;;;5070702;28;20174;-78
2021/04/25 03:09:28;;;;;;;5.43;3.58;;;8.00;72.90;;;;;;5070712;28;20035;-77
2021/04/25 03:11:54;;;;;;;7.40;3.00;;;8.00;72.90;;;;;;5051812;28;20028;-76
2021/04/25 03:14:19;;;;;;;10.30;3.67;;;7.90;73.00;;;;;;5052454;28;20043;-77
2021/04/25 03:16:45;;;;;;;6.53;3.10;;;7.90;72.90;;;;;;5069493;28;20048;-75
2021/04/25 03:19:11;;;;;;;6.35;2.58;;;7.70;73.30;;;;;;5051823;28;20067;-77
2021/04/25 03:21:37;;;;;;;3.22;2.13;;;7.70;73.00;;;;;;5052250;28;20036;-76
2021/04/25 03:24:03;;;;;;;4.78;2.40;;;7.80;72.80;;;;;;5070351;28;20104;-77
2021/04/25 03:26:28;;;;;;;6.78;2.40;;;7.70;72.60;;;;;;5070232;28;20033;-77
2021/04/25 03:28:54;;;;;;;5.22;2.95;;;7.70;72.70;;;;;;5069645;28;20125;-77
2021/04/25 03:31:20;;;;;;;4.32;2.28;;;7.60;72.80;;;;;;5052213;28;20031;-76
2021/04/25 03:33:45;;;;;;;10.55;2.47;;;7.50;72.70;;;;;;5051580;28;20342;-76
2021/04/25 03:36:11;;;;;;;3.85;2.13;;;7.60;73.10;;;;;;5070117;28;20028;-77
2021/04/25 03:38:36;;;;;;;5.40;2.10;;;7.50;73.00;;;;;;5051996;28;20430;-77
2021/04/25 03:41:02;;;;;;;6.85;2.28;;;7.50;73.30;;;;;;5069521;28;20029;-78
2021/04/25 03:43:28;;;;;;;5.75;2.60;;;7.50;73.50;;;;;;5051947;28;20036;-77
2021/04/25 03:45:53;;;;;;;7.82;2.03;;;7.50;73.10;;;;;;5051319;28;20036;-77
2021/04/25 03:48:19;;;;;;;7.15;2.03;;;7.50;72.80;;;;;;5051751;28;20043;-77
2021/04/25 03:50:45;;;;;;;5.75;1.67;;;7.30;73.40;;;;;;5069475;28;20032;-76
2021/04/25 03:53:10;;;;;;;3.30;1.92;;;7.40;73.10;;;;;;5069923;28;20402;-76
2021/04/25 03:55:36;;;;;;;9.00;2.20;;;7.40;73.40;;;;;;5051913;28;20024;-76
2021/04/25 03:58:02;;;;;;;5.78;2.13;;;7.30;73.30;;;;;;5068902;28;20024;-76
2021/04/25 04:00:28;;;;;;;3.28;1.83;;;7.40;73.00;;;;;;5051536;28;20055;-76
2021/04/25 04:02:54;;;;;;;9.57;2.53;;;7.30;73.20;;;;;;5050683;28;20028;-75
2021/04/25 04:05:19;;;;;;;5.53;1.90;;;7.40;73.20;;;;;;5051431;28;20086;-76
2021/04/25 04:07:45;;;;;;;4.63;1.80;;;7.20;73.50;;;;;;5051264;28;20032;-77
2021/04/25 04:10:12;;;;;;;7.10;2.30;;;7.20;73.50;;;;;;5052034;28;20039;-75
2021/04/25 04:12:37;;;;;;;5.07;1.75;;;7.30;73.50;;;;;;5051931;28;20029;-77
2021/04/25 04:15:04;;;;;;;6.60;2.60;;;7.20;73.70;;;;;;5055625;28;20052;-77
2021/04/25 04:17:30;;;;;;;6.28;2.33;;;7.20;73.80;;;;;;5090049;28;20377;-76
2021/04/25 04:19:56;;;;;;;5.45;1.85;;;7.30;73.40;;;;;;5087748;28;20069;-76
2021/04/25 04:22:21;;;;;;;7.03;1.60;;;7.30;73.20;;;;;;5090405;28;20036;-76
2021/04/25 04:24:47;;;;;;;8.02;1.98;;;7.20;73.60;;;;;;5089888;28;20039;-77
2021/04/25 04:27:13;;;;;;;4.88;1.90;;;7.10;74.10;;;;;;5088765;28;20055;-75
2021/04/25 04:29:38;;;;;;;5.10;1.70;;;7.20;73.80;;;;;;5089494;28;20105;-77
2021/04/25 04:32:04;;;;;;;8.27;2.22;;;7.30;73.80;;;;;;5094570;28;20024;-77
2021/04/25 04:34:30;;;;;;;4.13;1.70;;;7.30;73.20;;;;;;5095772;28;20035;-76
2021/04/25 04:36:56;;;;;;;4.82;1.67;;;7.30;73.60;;;;;;5095512;28;20123;-76
2021/04/25 04:39:21;;;;;;;8.55;2.08;;;7.50;73.30;;;;;;5095684;28;20078;-78
2021/04/25 04:41:47;;;;;;;6.47;1.70;;;7.60;72.60;;;;;;5095484;28;20093;-77
2021/04/25 04:44:12;;;;;;;4.90;1.95;;;7.80;72.30;;;;;;5095737;28;20043;-78
2021/04/25 04:46:38;;;;;;;4.97;1.42;;;7.80;71.80;;;;;;5092802;28;20067;-77
2021/04/25 04:49:04;;;;;;;10.52;2.65;;;7.70;71.90;;;;;;5095381;28;20318;-77
2021/04/25 04:51:29;;;;;;;10.48;2.05;;;7.60;72.50;;;;;;5093389;28;20028;-77
2021/04/25 04:53:55;;;;;;;6.82;2.17;;;7.30;73.40;;;;;;5091809;28;20021;-77
2021/04/25 04:56:21;;;;;;;7.32;1.73;;;7.40;73.10;;;;;;5092899;28;20028;-77
2021/04/25 04:58:46;;;;;;;3.92;2.08;;;7.30;73.30;;;;;;5092192;28;20024;-77
2021/04/25 05:01:12;;;;;;;3.75;1.95;;;7.20;73.50;;;;;;5092875;28;20446;-76
2021/04/25 05:03:37;;;;;;;4.95;1.50;;;7.20;74.00;;;;;;5093901;28;20035;-76
2021/04/25 05:06:03;;;;;;;5.20;1.80;;;7.30;73.70;;;;;;5093885;28;20111;-78
2021/04/25 05:08:29;;;;;;;6.25;1.58;;;7.30;73.80;;;;;;5093668;28;20451;-77
2021/04/25 05:10:55;;;;;;;5.20;2.30;;;7.40;73.40;;;;;;5091546;28;20028;-77
2021/04/25 05:13:20;;;;;;;9.70;1.77;;;7.60;72.80;;;;;;5093186;28;20441;-76
2021/04/25 05:15:46;;;;;;;3.88;1.52;;;7.60;73.10;;;;;;5082651;28;20469;-79
2021/04/25 05:18:12;;;;;;;6.35;2.33;;;7.70;72.90;;;;;;5055002;28;20104;-78
2021/04/25 05:20:38;;;;;;;4.97;1.60;;;7.50;73.20;;;;;;5072648;28;20140;-78
2021/04/25 05:23:04;;;;;;;5.05;1.95;;;7.50;73.20;;;;;;5072310;28;20303;-78
2021/04/25 05:25:29;;;;;;;6.00;1.92;;;7.50;73.40;;;;;;5054922;28;20048;-79
2021/04/25 05:27:55;;;;;;;6.13;1.73;;;7.60;73.20;;;;;;5073591;28;20032;-79
2021/04/25 05:30:21;;;;;;;6.50;1.73;;;7.60;73.10;;;;;;5054944;28;20485;-78
2021/04/25 05:32:47;;;;;;;7.28;1.83;;;7.70;73.00;;;;;;5054884;28;20101;-77
2021/04/25 05:35:13;;;;;;;5.13;1.88;;;7.70;72.60;;;;;;5055506;28;20411;-78
2021/04/25 05:37:39;;;;;;;7.38;1.90;;;7.40;73.20;;;;;;5072616;28;20025;-78
2021/04/25 05:40:07;;;;;;;3.03;1.65;;;7.50;73.70;;;;;;5053988;28;20254;-78
2021/04/25 05:42:33;;;;;;;4.45;2.20;;;7.50;73.80;;;;;;5054431;28;20028;-78
2021/04/25 05:44:59;;;;;;;9.73;2.63;;;7.50;74.00;;;;;;5072047;28;20123;-78
2021/04/25 05:47:25;;;;;;;5.32;1.83;;;7.40;74.30;;;;;;5054219;28;20106;-77
2021/04/25 05:49:50;;;;;;;4.22;1.90;;;7.40;74.60;;;;;;5053448;28;20031;-78
2021/04/25 05:52:16;;;;;;;5.53;1.92;;;7.60;73.80;;;;;;5054410;28;20024;-80
2021/04/25 05:54:42;;;;;;;5.85;2.28;;;7.60;73.50;;;;;;5054467;28;20021;-78
2021/04/25 05:57:08;;;;;;;6.82;2.17;;;7.80;73.00;;;;;;5053682;28;20025;-81
2021/04/25 05:59:36;;;;;;;6.47;1.90;;;7.70;73.20;;;;;;5054604;28;20074;-78
2021/04/25 06:02:05;;;;;;;6.80;1.88;;;7.70;73.60;;;;;;5054215;28;20052;-79
2021/04/25 06:04:31;;;;;;;5.88;2.50;;;7.80;73.20;;;;;;5071855;28;20040;-78
2021/04/25 06:06:57;;;;;;;6.43;2.22;;;7.90;72.90;;;;;;5071830;28;20046;-78
2021/04/25 06:09:22;;;;;;;9.27;2.22;;;8.00;73.00;;;;;;5074501;28;20147;-78
2021/04/25 06:11:48;;;;;;;7.40;2.00;;;8.00;72.40;;;;;;5072203;28;20528;-79
2021/04/25 06:14:14;;;;;;;7.43;2.42;;;8.10;72.40;;;;;;5053710;28;20397;-79
2021/04/25 06:16:40;;;;;;;7.15;2.13;;;7.80;72.70;;;;;;5085699;28;20073;-79
2021/04/25 06:19:06;;;;;;;6.28;2.08;;;7.80;73.60;;;;;;5089997;28;20024;-79
2021/04/25 06:21:32;;;;;;;4.30;1.85;;;7.90;73.30;;;;;;5073756;28;20036;-78
2021/04/25 06:23:57;;;;;;;8.38;2.00;;;8.10;72.90;;;;;;5091258;28;20433;-79
2021/04/25 06:26:23;;;;;;;16.15;2.92;;;8.10;73.10;;;;;;5090019;28;20118;-78
2021/04/25 06:28:49;;;;;;;7.63;2.20;;;8.00;73.30;;;;;;5090560;28;20042;-73
2021/04/25 06:31:14;;;;;;;9.18;2.95;;;8.10;73.00;;;;;;5090109;28;20024;-79
2021/04/25 06:33:40;;;;;;;4.47;2.03;;;8.20;72.70;;;;;;5091418;28;20028;-79
2021/04/25 06:36:06;;;;;;;7.72;2.25;;;8.20;72.60;;;;;;5090799;28;20380;-80
2021/04/25 06:38:32;;;;;;;6.45;2.05;;;8.40;72.40;;;;;;5092911;28;20470;-78
2021/04/25 06:40:58;;;;;;;5.10;2.13;;;8.30;73.00;;;;;;5090447;28;20066;-79
2021/04/25 06:43:23;;;;;;;5.10;2.17;;;8.30;73.00;;;;;;5091194;28;20035;-78
2021/04/25 06:45:49;;;;;;;6.18;2.08;;;8.50;72.60;;;;;;5090975;28;20444;-73
2021/04/25 06:48:15;;;;;;;4.88;2.15;;;8.70;72.40;;;;;;5090094;28;20024;-79
2021/04/25 06:50:42;;;;;;;6.88;2.20;;;8.70;72.40;;;;;;5091497;28;20035;-78
2021/04/25 06:53:08;;;;;;;5.70;2.95;;;8.70;72.20;;;;;;5088717;28;20039;-78
2021/04/25 06:55:34;;;;;;;4.90;2.22;;;8.90;71.90;;;;;;5091073;28;20025;-79
2021/04/25 06:58:00;;;;;;;4.88;1.88;;;9.10;71.80;;;;;;5089091;28;20417;-79
2021/04/25 07:00:26;;;;;;;5.57;2.50;;;9.20;71.40;;;;;;5090977;28;20028;-79
2021/04/25 07:02:56;;;;;;;7.15;2.75;;;9.50;71.50;;;;;;5089165;28;20031;-78
2021/04/25 07:05:22;;;;;;;9.63;3.03;;;9.60;70.20;;;;;;5091312;28;20047;-79
2021/04/25 07:07:49;;;;;;;9.13;3.60;;;9.60;70.60;;;;;;5089463;28;20115;-79
2021/04/25 07:10:15;;;;;;;8.48;2.45;;;10.00;70.20;;;;;;5089450;28;20349;-79
2021/04/25 07:12:42;;;;;;;7.47;3.00;;;10.20;69.90;;;;;;5091046;28;20055;-78
2021/04/25 07:15:08;;;;;;;8.68;3.58;;;10.40;68.80;;;;;;5087542;28;20044;-78
2021/04/25 07:17:34;;;;;;;7.90;2.90;;;10.50;68.00;;;;;;5070748;28;20036;-78
2021/04/25 07:20:00;;;;;;;4.90;2.55;;;10.70;68.10;;;;;;5052168;28;20027;-79
2021/04/25 07:22:26;;;;;;;5.07;1.60;;;10.60;67.80;;;;;;5052202;28;20028;-48
2021/04/25 07:24:52;;;;;;;5.65;2.13;;;11.70;78.80;;;;;;5050525;28;20089;-50
2021/04/25 07:27:19;;;;;;;7.22;2.47;;;12.40;71.30;;;;;;5070101;28;20060;-48
2021/04/25 07:29:45;;;;;;;7.57;1.90;;;13.20;70.90;;;;;;5069722;28;20021;-48
2021/04/25 07:32:11;;;;;;;5.78;1.95;;;13.50;67.70;;;;;;5068994;28;20033;-48
2021/04/25 07:34:37;;;;;;;5.90;1.90;;;13.50;66.50;;;;;;5069763;28;20426;-48
2021/04/25 07:37:06;;;;;;;5.55;1.80;;;13.90;64.60;;;;;;5068750;28;20035;-49
2021/04/25 07:39:38;;;;;;;6.85;2.63;;;14.30;67.90;;;;;;5069463;28;20330;-48
2021/04/25 07:42:06;;;;;;;11.85;2.10;;;14.50;67.40;;;;;;5050614;28;20096;-49
2021/04/25 07:44:32;;;;;;;7.30;2.63;;;15.70;66.30;;;;;;5051474;28;20123;-48
2021/04/25 07:46:57;;;;;;;6.72;3.03;;;16.10;62.10;;;;;;5068868;28;20422;-48
2021/04/25 07:49:23;;;;;;;8.07;1.95;;;16.40;60.30;;;;;;5051549;28;20067;-48
2021/04/25 07:51:50;;;;;;;4.45;2.00;;;16.50;61.80;;;;;;5069400;28;20118;-57
2021/04/25 07:54:15;;;;;;;7.90;2.60;;;16.80;60.20;;;;;;5048267;28;20104;-50
2021/04/25 07:56:41;;;;;;;8.82;2.55;;;17.00;58.80;;;;;;5045562;28;20074;-56
2021/04/25 07:59:07;;;;;;;5.88;2.65;;;17.00;57.40;;;;;;5068779;28;20025;-47
2021/04/25 08:01:32;;;;;;;4.35;2.50;;;17.30;56.10;;;;;;5069620;28;20060;-48
2021/04/25 08:03:58;;;;;;;12.80;3.10;;;17.40;56.50;;;;;;5068882;28;20044;-47
2021/04/25 08:06:26;;;;;;;5.00;2.47;;;17.40;56.60;;;;;;5072077;28;20441;-48
2021/04/25 08:08:52;;;;;;;8.95;2.22;;;17.70;56.10;;;;;;5072552;28;20028;-49
2021/04/25 08:11:18;;;;;;;5.38;2.25;;;18.00;55.60;;;;;;5057009;28;20041;-48
2021/04/25 08:13:44;;;;;;;5.40;1.75;;;17.80;54.80;;;;;;5053035;28;20039;-48
2021/04/25 08:16:09;;;;;;;6.53;3.05;;;18.20;55.40;;;;;;5052062;28;20108;-48
2021/04/25 08:18:35;;;;;;;4.95;2.00;;;18.20;53.50;;;;;;5052596;28;20187;-48
2021/04/25 08:21:01;;;;;;;7.82;3.00;;;18.30;53.60;;;;;;5062695;28;20381;-48
2021/04/25 08:23:26;;;;;;;6.22;2.30;;;17.90;53.60;;;;;;5072689;28;20032;-49
2021/04/25 08:25:52;;;;;;;6.72;2.03;;;18.40;54.10;;;;;;5054278;28;20105;-48
2021/04/25 08:28:18;;;;;;;6.80;2.22;;;18.30;53.80;;;;;;5071682;28;20056;-48
2021/04/25 08:30:44;;;;;;;8.50;2.30;;;18.10;53.80;;;;;;5054586;28;20040;-48
2021/04/25 08:33:10;;;;;;;6.03;2.05;;;17.90;54.20;;;;;;5072248;28;20044;-48
2021/04/25 08:35:36;;;;;;;5.72;3.17;;;18.50;54.30;;;;;;5072427;28;20455;-49
2021/04/25 08:38:01;;;;;;;5.90;2.42;;;18.00;54.00;;;;;;5071897;28;20457;-47
2021/04/25 08:40:27;;;;;;;5.35;2.50;;;18.30;53.20;;;;;;5072912;28;20423;-48
2021/04/25 08:42:54;;;;;;;5.85;2.38;;;18.50;53.70;;;;;;5072745;28;20028;-48
2021/04/25 08:45:20;;;;;;;7.63;2.88;;;19.00;53.30;;;;;;5053336;28;20042;-48
2021/04/25 08:47:54;;;;;;;4.75;2.17;;;19.30;51.50;;;;;;5054122;28;20115;-50
2021/04/25 08:50:21;;;;;;;6.80;2.83;;;19.40;51.80;;;;;;5053575;28;20032;-48
2021/04/25 08:52:48;;;;;;;5.03;2.42;;;19.50;52.10;;;;;;5064263;28;20036;-49
2021/04/25 08:55:13;;;;;;;5.65;2.50;;;19.40;51.30;;;;;;5033661;28;20105;-48
2021/04/25 08:57:39;;;;;;;9.57;2.97;;;19.60;51.20;;;;;;5033559;28;20037;-49
2021/04/25 09:00:07;;;;;;;4.32;2.15;;;19.80;51.20;;;;;;5032911;28;20139;-48
2021/04/25 09:02:33;;;;;;;5.80;2.25;;;19.70;50.40;;;;;;5052306;28;20036;-49
2021/04/25 09:04:59;;;;;;;8.10;3.67;;;20.00;51.80;;;;;;5051533;28;20410;-50
2021/04/25 09:07:25;;;;;;;5.93;3.35;;;20.10;49.80;;;;;;5033060;28;20029;-49
2021/04/25 09:09:55;;;;;;;9.65;3.53;;;20.10;49.80;;;;;;5053320;28;20025;-48
2021/04/25 09:12:35;;;;;;;7.90;4.13;;;20.40;50.40;;;;;;5053080;28;20108;-48
2021/04/25 09:15:12;;;;;;;7.05;3.15;;;20.20;51.20;;;;;;5071366;28;20024;-49
2021/04/25 09:17:47;;;;;;;12.10;3.78;;;19.70;49.80;;;;;;5036255;28;20071;-54
2021/04/25 09:20:13;;;;;;;6.85;2.90;;;20.30;50.10;;;;;;5052897;28;20090;-47
2021/04/25 09:22:45;;;;;;;14.57;3.78;;;20.50;49.30;;;;;;5053455;28;20462;-76
2021/04/25 09:25:14;;;;;;;6.07;3.38;;;20.60;48.60;;;;;;5033566;28;20021;-76
2021/04/25 09:27:42;;;;;;;6.22;2.80;;;20.10;50.40;;;;;;5034285;28;20104;-74
2021/04/25 09:30:09;;;;;;;9.95;2.97;;;20.00;49.30;;;;;;5052036;28;20039;-76
2021/04/25 09:32:34;;;;;;;5.22;3.05;;;19.80;49.10;;;;;;5033947;28;20029;-77
2021/04/25 09:35:08;;;;;;;7.38;3.45;;;19.80;47.90;;;;;;5051253;28;20331;-76
2021/04/25 09:37:36;;;;;;;5.05;2.50;;;19.50;49.50;;;;;;5034274;28;20024;-77
2021/04/25 09:40:04;;;;;;;4.70;2.22;;;20.10;49.90;;;;;;5033880;28;20055;-78
2021/04/25 09:42:31;;;;;;;6.93;2.40;;;20.10;48.40;;;;;;5034229;28;20033;-79
2021/04/25 09:44:57;;;;;;;5.72;2.08;;;20.20;49.60;;;;;;5033770;28;20041;-79
2021/04/25 09:47:34;;;;;;;7.20;3.00;;;20.60;49.20;;;;;;5032201;28;20025;-79
2021/04/25 09:50:00;;;;;;;4.93;2.40;;;20.70;48.80;;;;;;5051109;28;20039;-75
2021/04/25 09:52:26;;;;;;;5.50;2.47;;;20.60;49.50;;;;;;5069294;28;20032;-79
2021/04/25 09:55:11;;;;;;;6.40;2.15;;;20.50;46.70;;;;;;5052697;28;20038;-78
2021/04/25 09:57:37;;;;;;;4.07;2.22;;;20.70;48.10;;;;;;5070744;28;20102;-78
2021/04/25 10:00:05;;;;;;;9.48;2.50;;;20.50;47.90;;;;;;5069703;28;20394;-76
2021/04/25 10:02:32;;;;;;;9.27;3.33;;;20.70;45.70;;;;;;5069986;28;20142;-72
2021/04/25 10:05:06;;;;;;;6.15;2.58;;;20.50;45.70;;;;;;5052096;28;20051;-73
2021/04/25 10:07:35;;;;;;;6.60;2.38;;;20.20;45.70;;;;;;5070510;28;20052;-73
2021/04/25 10:10:18;;;;;;;7.50;3.00;;;20.20;46.70;;;;;;5051072;28;20021;-74
2021/04/25 10:12:45;;;;;;;4.95;2.90;;;20.00;46.70;;;;;;5069969;28;20123;-72
2021/04/25 10:15:12;;;;;;;4.20;2.33;;;20.10;46.80;;;;;;5050161;28;20059;-72
2021/04/25 10:17:46;;;;;;;8.82;2.78;;;20.30;47.00;;;;;;5034030;28;20075;-73
2021/04/25 10:20:15;;;;;;;5.50;2.72;;;20.20;46.90;;;;;;5031119;28;20047;-73
2021/04/25 10:22:42;;;;;;;6.53;2.90;;;20.20;46.80;;;;;;5050311;28;20055;-73
2021/04/25 10:25:13;;;;;;;7.28;2.95;;;20.50;46.50;;;;;;5049349;28;20021;-72
2021/04/25 10:27:45;;;;;;;4.55;2.45;;;20.30;47.70;;;;;;5048923;28;20082;-74
2021/04/25 10:30:13;;;;;;;5.85;2.60;;;20.80;48.10;;;;;;5031195;28;20025;-74
2021/04/25 10:32:42;;;;;;;5.70;2.72;;;21.40;47.30;;;;;;5049214;28;20410;-72
2021/04/25 10:35:13;;;;;;;6.00;2.85;;;21.50;46.20;;;;;;5030942;28;20087;-70
2021/04/25 10:37:40;;;;;;;5.45;3.25;;;21.40;46.10;;;;;;5031731;28;20112;-73
2021/04/25 10:40:23;;;;;;;6.63;3.33;;;21.30;45.30;;;;;;5030343;28;20069;-73
2021/04/25 10:42:57;;;;;;;5.13;3.15;;;21.20;45.30;;;;;;5031136;28;20032;-72
2021/04/25 10:45:30;;;;;;;4.22;2.40;;;20.30;47.10;;;;;;5029979;28;20472;-73
2021/04/25 10:48:17;;;;;;;5.40;2.90;;;20.80;47.80;;;;;;5049504;28;20334;-73
2021/04/25 10:50:46;;;;;;;6.40;2.92;;;20.80;47.00;;;;;;5049109;28;20055;-74
2021/04/25 10:53:39;;;;;;;6.20;2.47;;;21.00;44.80;;;;;;5048697;28;20029;-73
2021/04/25 10:56:17;;;;;;;7.80;3.42;;;21.20;45.80;;;;;;5044901;28;20047;-73
2021/04/25 10:59:23;;;;;;;4.88;2.35;;;21.20;44.20;;;;;;5046955;28;20135;-73
2021/04/25 11:01:49;;;;;;;10.57;3.45;;;21.20;45.30;;;;;;5031262;28;20126;-73
2021/04/25 11:04:58;;;;;;;7.35;2.70;;;21.20;43.80;;;;;;5030737;28;20467;-72
2021/04/25 11:07:33;;;;;;;6.72;3.10;;;21.00;44.30;;;;;;5048712;28;20028;-71
2021/04/25 11:09:59;;;;;;;5.30;2.47;;;20.90;45.00;;;;;;5030775;28;20048;-73
2021/04/25 11:12:38;;;;;;;7.97;2.90;;;21.70;44.50;;;;;;5013795;28;20025;-71
2021/04/25 11:15:06;;;;;;;6.32;2.97;;;21.70;45.20;;;;;;5049899;28;20039;-74
2021/04/25 11:17:32;;;;;;;7.63;2.30;;;21.80;44.60;;;;;;5068020;28;20044;-71
2021/04/25 11:19:58;;;;;;;9.38;2.60;;;22.10;44.30;;;;;;5066059;28;20029;-70
2021/04/25 11:22:45;;;;;;;8.75;2.83;;;22.00;44.00;;;;;;5068452;28;20029;-71
2021/04/25 11:25:29;;;;;;;4.65;2.38;;;22.40;42.00;;;;;;5067974;28;20474;-72
2021/04/25 11:27:55;;;;;;;5.95;2.60;;;22.60;44.80;;;;;;5068843;28;20025;-71
2021/04/25 11:30:38;;;;;;;5.10;2.67;;;22.70;43.00;;;;;;5066497;28;20438;-72
2021/04/25 11:33:33;;;;;;;8.20;2.70;;;22.10;42.90;;;;;;5067096;28;20025;-73
2021/04/25 11:36:38;;;;;;;9.38;2.83;;;21.90;44.50;;;;;;5067903;28;20207;-71
2021/04/25 11:39:05;;;;;;;5.28;2.60;;;21.90;43.40;;;;;;5046266;28;20037;-72
2021/04/25 11:41:31;;;;;;;7.20;3.42;;;21.90;43.30;;;;;;5071067;28;20032;-73
2021/04/25 11:43:58;;;;;;;4.93;2.70;;;21.60;43.80;;;;;;5071167;28;20045;-72
2021/04/25 11:46:34;;;;;;;4.30;2.15;;;21.70;44.70;;;;;;5078812;28;20140;-74
2021/04/25 11:49:01;;;;;;;6.72;3.35;;;22.10;43.40;;;;;;5073873;28;20178;-73
2021/04/25 11:51:29;;;;;;;3.83;2.05;;;21.80;43.00;;;;;;5090614;28;20562;-72
2021/04/25 11:53:55;;;;;;;4.93;2.50;;;22.00;41.60;;;;;;5091061;28;20472;-72
2021/04/25 11:56:23;;;;;;;10.30;2.67;;;22.60;42.30;;;;;;5091919;28;20328;-74
2021/04/25 11:58:50;;;;;;;5.55;2.40;;;22.90;43.10;;;;;;5093141;28;20103;-73
2021/04/25 12:01:23;;;;;;;9.05;2.67;;;22.80;50.60;;;;;;5090735;28;20138;-74
2021/04/25 12:03:50;;;;;;;10.60;2.60;;;22.30;42.10;;;;;;5086909;28;20043;-74
2021/04/25 12:06:16;;;;;;;9.80;2.97;;;22.30;43.70;;;;;;5089459;28;20089;-72
2021/04/25 12:08:54;;;;;;;5.03;3.90;;;22.70;42.70;;;;;;5093122;28;20028;-73
2021/04/25 12:11:27;;;;;;;7.90;3.28;;;22.40;42.30;;;;;;5073432;28;20039;-72
2021/04/25 12:13:53;;;;;;;5.40;3.05;;;22.50;42.90;;;;;;5091173;28;20383;-72
2021/04/25 12:16:22;;;;;;;8.50;2.25;;;22.50;42.80;;;;;;5073148;28;20557;-71
2021/04/25 12:18:50;;;;;;;7.75;2.67;;;22.60;44.00;;;;;;5034553;28;20032;-73
2021/04/25 12:21:19;;;;;;;7.45;3.05;;;22.20;41.80;;;;;;5033596;28;20047;-72
2021/04/25 12:23:50;;;;;;;5.40;1.80;;;22.50;42.20;;;;;;5052135;28;20067;-72
2021/04/25 12:26:18;;;;;;;5.43;2.33;;;22.70;41.80;;;;;;5033815;28;20029;-78
2021/04/25 12:28:46;;;;;;;3.55;2.05;;;22.30;40.50;;;;;;5033421;28;20088;-54
2021/04/25 12:31:16;;;;;;;5.25;2.40;;;22.50;43.00;;;;;;5049903;28;20132;-50
2021/04/25 12:33:54;;;;;;;5.38;2.60;;;22.80;41.80;;;;;;5016330;28;20409;-53
2021/04/25 12:36:21;;;;;;;7.88;1.98;;;22.90;42.10;;;;;;5032517;28;20116;-48
2021/04/25 12:39:06;;;;;;;5.38;1.80;;;23.00;44.00;;;;;;5050821;28;20108;-52
2021/04/25 12:41:39;;;;;;;5.72;2.05;;;23.30;42.70;;;;;;5032456;28;20032;-57
2021/04/25 12:44:05;;;;;;;3.78;2.35;;;23.30;42.80;;;;;;5049821;28;20037;-48
2021/04/25 12:46:31;;;;;;;8.00;2.50;;;23.40;41.40;;;;;;5060332;28;20410;-49
2021/04/25 12:49:00;;;;;;;5.80;2.10;;;23.50;42.20;;;;;;5056955;28;20358;-49
2021/04/25 12:51:42;;;;;;;5.93;2.30;;;23.30;42.50;;;;;;5048354;28;20029;-50
2021/04/25 12:54:16;;;;;;;4.35;2.15;;;23.30;41.70;;;;;;5049530;28;20025;-49